sensor_id;sensor_type;location;lat;lon;timestamp;pressure;altitude;pressure_sealevel;temperature;humidity
3524;BME280;1776;53.330;11.498;2023-04-15T00:00:37;23690.75;;;-147.39;80.06
3524;BME280;1776;53.330;11.498;2023-04-15T00:03:03;23666.34;;;-147.39;79.96
3524;BME280;1776;53.330;11.498;2023-04-15T00:05:30;23713.09;;;-147.39;80.35
3524;BME280;1776;53.330;11.498;2023-04-15T00:07:56;23696.84;;;-147.39;80.14
3524;BME280;1776;53.330;11.498;2023-04-15T00:10:23;23654.16;;;-147.39;80.62
3524;BME280;1776;53.330;11.498;2023-04-15T00:12:48;23670.41;;;-147.39;80.50
3524;BME280;1776;53.330;11.498;2023-04-15T00:15:13;23627.72;;;-147.39;80.44
3524;BME280;1776;53.330;11.498;2023-04-15T00:17:39;23639.91;;;-147.39;80.86
3524;BME280;1776;53.330;11.498;2023-04-15T00:20:05;23585.03;;;-147.39;80.96
3524;BME280;1776;53.330;11.498;2023-04-15T00:22:31;23623.66;;;-147.39;80.93
3524;BME280;1776;53.330;11.498;2023-04-15T00:24:56;23646.00;;;-147.39;81.00
3524;BME280;1776;53.330;11.498;2023-04-15T00:27:22;23694.81;;;-147.39;81.11
3524;BME280;1776;53.330;11.498;2023-04-15T00:29:47;23595.19;;;-147.39;81.14
3524;BME280;1776;53.330;11.498;2023-04-15T00:32:12;23583.00;;;-147.39;81.08
3524;BME280;1776;53.330;11.498;2023-04-15T00:34:38;23607.38;;;-147.39;80.75
3524;BME280;1776;53.330;11.498;2023-04-15T00:37:03;23643.97;;;-147.39;80.81
3524;BME280;1776;53.330;11.498;2023-04-15T00:39:29;23593.16;;;-147.39;80.81
3524;BME280;1776;53.330;11.498;2023-04-15T00:41:55;23576.88;;;-147.39;80.97
3524;BME280;1776;53.330;11.498;2023-04-15T00:44:21;23558.59;;;-147.39;80.62
3524;BME280;1776;53.330;11.498;2023-04-15T00:46:47;23611.44;;;-147.39;80.71
3524;BME280;1776;53.330;11.498;2023-04-15T00:49:13;23580.97;;;-147.39;80.97
3524;BME280;1776;53.330;11.498;2023-04-15T00:51:38;23597.22;;;-147.39;80.83
3524;BME280;1776;53.330;11.498;2023-04-15T00:54:04;23583.00;;;-147.39;80.94
3524;BME280;1776;53.330;11.498;2023-04-15T00:56:34;23532.16;;;-147.39;81.02
3524;BME280;1776;53.330;11.498;2023-04-15T00:59:00;23534.19;;;-147.39;81.29
3524;BME280;1776;53.330;11.498;2023-04-15T01:01:26;23585.03;;;-147.39;81.27
3524;BME280;1776;53.330;11.498;2023-04-15T01:03:54;23550.47;;;-147.39;81.35
3524;BME280;1776;53.330;11.498;2023-04-15T01:06:20;23548.44;;;-147.39;81.15
3524;BME280;1776;53.330;11.498;2023-04-15T01:08:45;23544.38;;;-147.39;81.36
3524;BME280;1776;53.330;11.498;2023-04-15T01:11:12;23522.00;;;-147.39;81.39
3524;BME280;1776;53.330;11.498;2023-04-15T01:13:37;23489.47;;;-147.39;81.67
3524;BME280;1776;53.330;11.498;2023-04-15T01:16:02;23570.78;;;-147.39;81.56
3524;BME280;1776;53.330;11.498;2023-04-15T01:18:29;23507.78;;;-147.39;81.73
3524;BME280;1776;53.330;11.498;2023-04-15T01:20:54;23522.00;;;-147.39;81.46
3524;BME280;1776;53.330;11.498;2023-04-15T01:23:22;23503.72;;;-147.39;81.73
3524;BME280;1776;53.330;11.498;2023-04-15T01:25:48;23491.50;;;-147.39;81.81
3524;BME280;1776;53.330;11.498;2023-04-15T01:28:14;23489.47;;;-147.39;81.66
3524;BME280;1776;53.330;11.498;2023-04-15T01:30:40;23558.59;;;-147.39;81.64
3524;BME280;1776;53.330;11.498;2023-04-15T01:33:05;23507.78;;;-147.39;81.28
3524;BME280;1776;53.330;11.498;2023-04-15T01:35:31;23493.53;;;-147.39;81.39
3524;BME280;1776;53.330;11.498;2023-04-15T01:38:05;23489.47;;;-147.39;81.54
3524;BME280;1776;53.330;11.498;2023-04-15T01:40:32;23479.31;;;-147.39;81.63
3524;BME280;1776;53.330;11.498;2023-04-15T01:42:58;23475.25;;;-147.39;81.82
3524;BME280;1776;53.330;11.498;2023-04-15T01:45:23;23444.75;;;-147.39;82.16
3524;BME280;1776;53.330;11.498;2023-04-15T01:47:48;23454.91;;;-147.39;81.98
3524;BME280;1776;53.330;11.498;2023-04-15T01:50:14;23463.03;;;-147.39;82.11
3524;BME280;1776;53.330;11.498;2023-04-15T01:52:40;23412.22;;;-147.39;82.68
3524;BME280;1776;53.330;11.498;2023-04-15T01:55:06;23501.66;;;-147.39;82.91
3524;BME280;1776;53.330;11.498;2023-04-15T01:57:32;23389.84;;;-147.39;82.75
3524;BME280;1776;53.330;11.498;2023-04-15T01:59:57;23359.38;;;-147.39;83.02
3524;BME280;1776;53.330;11.498;2023-04-15T02:02:23;23334.97;;;-147.39;83.04
3524;BME280;1776;53.330;11.498;2023-04-15T02:04:48;23300.41;;;-147.39;83.31
3524;BME280;1776;53.330;11.498;2023-04-15T02:07:14;23162.19;;;-147.39;83.60
3524;BME280;1776;53.330;11.498;2023-04-15T02:09:39;23253.66;;;-147.39;83.89
3524;BME280;1776;53.330;11.498;2023-04-15T02:12:05;23288.22;;;-147.39;83.84
3524;BME280;1776;53.330;11.498;2023-04-15T02:14:30;23253.66;;;-147.39;83.77
3524;BME280;1776;53.330;11.498;2023-04-15T02:16:55;23237.41;;;-147.39;83.95
3524;BME280;1776;53.330;11.498;2023-04-15T02:19:21;23257.72;;;-147.39;83.66
3524;BME280;1776;53.330;11.498;2023-04-15T02:21:46;23202.84;;;-147.39;83.56
3524;BME280;1776;53.330;11.498;2023-04-15T02:24:11;23172.34;;;-147.39;83.64
3524;BME280;1776;53.330;11.498;2023-04-15T02:26:36;23184.53;;;-147.39;83.62
3524;BME280;1776;53.330;11.498;2023-04-15T02:29:02;23176.41;;;-147.39;83.52
3524;BME280;1776;53.330;11.498;2023-04-15T02:31:27;23188.59;;;-147.39;83.58
3524;BME280;1776;53.330;11.498;2023-04-15T02:33:52;23192.69;;;-147.39;83.43
3524;BME280;1776;53.330;11.498;2023-04-15T02:36:18;23160.16;;;-147.39;83.48
3524;BME280;1776;53.330;11.498;2023-04-15T02:38:45;23149.97;;;-147.39;83.63
3524;BME280;1776;53.330;11.498;2023-04-15T02:41:10;23141.84;;;-147.39;83.22
3524;BME280;1776;53.330;11.498;2023-04-15T02:43:35;23152.03;;;-147.39;83.52
3524;BME280;1776;53.330;11.498;2023-04-15T02:46:02;23127.63;;;-147.39;83.45
3524;BME280;1776;53.330;11.498;2023-04-15T02:48:27;23111.38;;;-147.39;83.33
3524;BME280;1776;53.330;11.498;2023-04-15T02:50:52;23086.97;;;-147.39;83.51
3524;BME280;1776;53.330;11.498;2023-04-15T02:53:18;23139.81;;;-147.39;83.26
3524;BME280;1776;53.330;11.498;2023-04-15T02:55:44;23066.66;;;-147.39;83.29
3524;BME280;1776;53.330;11.498;2023-04-15T02:58:09;23058.50;;;-147.39;83.27
3524;BME280;1776;53.330;11.498;2023-04-15T03:00:35;23109.34;;;-147.39;83.25
3524;BME280;1776;53.330;11.498;2023-04-15T03:03:02;23070.72;;;-147.39;82.94
3524;BME280;1776;53.330;11.498;2023-04-15T03:05:28;23119.50;;;-147.39;82.96
3524;BME280;1776;53.330;11.498;2023-04-15T03:07:53;23078.84;;;-147.39;83.31
3524;BME280;1776;53.330;11.498;2023-04-15T03:10:18;23080.88;;;-147.39;83.58
3524;BME280;1776;53.330;11.498;2023-04-15T03:12:44;23044.28;;;-147.39;83.28
3524;BME280;1776;53.330;11.498;2023-04-15T03:15:09;23046.31;;;-147.39;83.24
3524;BME280;1776;53.330;11.498;2023-04-15T03:17:35;23066.66;;;-147.39;83.60
3524;BME280;1776;53.330;11.498;2023-04-15T03:20:02;22999.56;;;-147.39;83.76
3524;BME280;1776;53.330;11.498;2023-04-15T03:22:29;23003.63;;;-147.39;83.55
3524;BME280;1776;53.330;11.498;2023-04-15T03:24:54;22989.41;;;-147.39;83.83
3524;BME280;1776;53.330;11.498;2023-04-15T03:27:20;22989.41;;;-147.39;83.65
3524;BME280;1776;53.330;11.498;2023-04-15T03:29:45;22967.03;;;-147.39;84.00
3524;BME280;1776;53.330;11.498;2023-04-15T03:32:10;23017.84;;;-147.39;84.18
3524;BME280;1776;53.330;11.498;2023-04-15T03:34:36;22942.66;;;-147.39;84.25
3524;BME280;1776;53.330;11.498;2023-04-15T03:37:02;22938.59;;;-147.39;84.13
3524;BME280;1776;53.330;11.498;2023-04-15T03:39:27;22952.81;;;-147.39;83.97
3524;BME280;1776;53.330;11.498;2023-04-15T03:41:52;22967.03;;;-147.39;83.68
3524;BME280;1776;53.330;11.498;2023-04-15T03:44:17;22950.78;;;-147.39;83.95
3524;BME280;1776;53.330;11.498;2023-04-15T03:46:43;22930.44;;;-147.39;83.83
3524;BME280;1776;53.330;11.498;2023-04-15T03:49:08;22971.09;;;-147.39;83.79
3524;BME280;1776;53.330;11.498;2023-04-15T03:51:33;23030.06;;;-147.39;83.87
3524;BME280;1776;53.330;11.498;2023-04-15T03:53:59;22914.19;;;-147.39;83.85
3524;BME280;1776;53.330;11.498;2023-04-15T03:56:26;22899.97;;;-147.39;83.62
3524;BME280;1776;53.330;11.498;2023-04-15T03:58:51;22904.03;;;-147.39;83.68
3524;BME280;1776;53.330;11.498;2023-04-15T04:01:17;22902.00;;;-147.39;83.82
3524;BME280;1776;53.330;11.498;2023-04-15T04:03:43;22912.16;;;-147.39;83.79
3524;BME280;1776;53.330;11.498;2023-04-15T04:06:08;22904.03;;;-147.39;83.72
3524;BME280;1776;53.330;11.498;2023-04-15T04:08:34;22875.56;;;-147.39;83.50
3524;BME280;1776;53.330;11.498;2023-04-15T04:10:59;22899.97;;;-147.39;83.59
3524;BME280;1776;53.330;11.498;2023-04-15T04:13:25;22851.19;;;-147.39;83.54
3524;BME280;1776;53.330;11.498;2023-04-15T04:15:50;22879.63;;;-147.39;83.35
3524;BME280;1776;53.330;11.498;2023-04-15T04:18:15;22877.59;;;-147.39;83.27
3524;BME280;1776;53.330;11.498;2023-04-15T04:20:41;22834.91;;;-147.39;83.40
3524;BME280;1776;53.330;11.498;2023-04-15T04:23:06;22867.44;;;-147.39;83.46
3524;BME280;1776;53.330;11.498;2023-04-15T04:25:31;22873.53;;;-147.39;83.27
3524;BME280;1776;53.330;11.498;2023-04-15T04:27:57;22891.84;;;-147.39;83.10
3524;BME280;1776;53.330;11.498;2023-04-15T04:30:22;22893.88;;;-147.39;83.04
3524;BME280;1776;53.330;11.498;2023-04-15T04:32:48;22865.41;;;-147.39;82.85
3524;BME280;1776;53.330;11.498;2023-04-15T04:35:14;22875.56;;;-147.39;82.96
3524;BME280;1776;53.330;11.498;2023-04-15T04:37:40;22883.69;;;-147.39;82.92
3524;BME280;1776;53.330;11.498;2023-04-15T04:40:05;22865.41;;;-147.39;82.79
3524;BME280;1776;53.330;11.498;2023-04-15T04:42:32;22877.59;;;-147.39;82.64
3524;BME280;1776;53.330;11.498;2023-04-15T04:44:57;22873.53;;;-147.39;82.84
3524;BME280;1776;53.330;11.498;2023-04-15T04:47:22;22859.31;;;-147.39;82.62
3524;BME280;1776;53.330;11.498;2023-04-15T04:49:48;22873.53;;;-147.39;82.46
3524;BME280;1776;53.330;11.498;2023-04-15T04:52:13;22881.66;;;-147.39;82.41
3524;BME280;1776;53.330;11.498;2023-04-15T04:54:38;22887.75;;;-147.39;82.33
3524;BME280;1776;53.330;11.498;2023-04-15T04:57:04;23046.31;;;-147.39;82.35
3524;BME280;1776;53.330;11.498;2023-04-15T04:59:29;22877.59;;;-147.39;82.41
3524;BME280;1776;53.330;11.498;2023-04-15T05:01:54;22924.34;;;-147.39;82.35
3524;BME280;1776;53.330;11.498;2023-04-15T05:04:20;22883.69;;;-147.39;82.18
3524;BME280;1776;53.330;11.498;2023-04-15T05:06:45;22910.13;;;-147.39;82.27
3524;BME280;1776;53.330;11.498;2023-04-15T05:09:11;22912.16;;;-147.39;82.07
3524;BME280;1776;53.330;11.498;2023-04-15T05:11:36;22938.59;;;-147.39;81.85
3524;BME280;1776;53.330;11.498;2023-04-15T05:14:01;22885.72;;;-147.39;81.76
3524;BME280;1776;53.330;11.498;2023-04-15T05:16:27;22958.91;;;-147.39;81.72
3524;BME280;1776;53.330;11.498;2023-04-15T05:18:52;22869.47;;;-147.39;81.71
3524;BME280;1776;53.330;11.498;2023-04-15T05:21:18;22922.31;;;-147.39;82.03
3524;BME280;1776;53.330;11.498;2023-04-15T05:23:43;22910.13;;;-147.39;81.62
3524;BME280;1776;53.330;11.498;2023-04-15T05:26:09;22895.91;;;-147.39;81.50
3524;BME280;1776;53.330;11.498;2023-04-15T05:28:34;22899.97;;;-147.39;82.46
3524;BME280;1776;53.330;11.498;2023-04-15T05:30:59;22910.13;;;-147.39;82.66
3524;BME280;1776;53.330;11.498;2023-04-15T05:33:25;22853.22;;;-147.39;82.69
3524;BME280;1776;53.330;11.498;2023-04-15T05:35:51;22845.09;;;-147.39;82.51
3524;BME280;1776;53.330;11.498;2023-04-15T05:38:17;22847.13;;;-147.39;82.92
3524;BME280;1776;53.330;11.498;2023-04-15T05:40:42;22841.00;;;-147.39;83.13
3524;BME280;1776;53.330;11.498;2023-04-15T05:43:07;22792.22;;;-147.39;83.08
3524;BME280;1776;53.330;11.498;2023-04-15T05:45:33;22855.25;;;-147.39;83.22
3524;BME280;1776;53.330;11.498;2023-04-15T05:47:58;22794.25;;;-147.39;83.30
3524;BME280;1776;53.330;11.498;2023-04-15T05:50:23;22792.22;;;-147.39;83.22
3524;BME280;1776;53.330;11.498;2023-04-15T05:52:48;22771.91;;;-147.39;83.48
3524;BME280;1776;53.330;11.498;2023-04-15T05:55:14;22808.50;;;-147.39;83.43
3524;BME280;1776;53.330;11.498;2023-04-15T05:57:39;22798.34;;;-147.39;83.37
3524;BME280;1776;53.330;11.498;2023-04-15T06:00:05;22790.19;;;-147.39;83.38
3524;BME280;1776;53.330;11.498;2023-04-15T06:02:30;22792.22;;;-147.39;83.60
3524;BME280;1776;53.330;11.498;2023-04-15T06:04:56;22786.13;;;-147.39;83.50
3524;BME280;1776;53.330;11.498;2023-04-15T06:07:24;22788.16;;;-147.39;83.35
3524;BME280;1776;53.330;11.498;2023-04-15T06:09:50;22800.38;;;-147.39;83.57
3524;BME280;1776;53.330;11.498;2023-04-15T06:12:15;22739.38;;;-147.39;83.50
3524;BME280;1776;53.330;11.498;2023-04-15T06:14:41;22747.50;;;-147.39;83.66
3524;BME280;1776;53.330;11.498;2023-04-15T06:17:06;22712.97;;;-147.39;84.08
3524;BME280;1776;53.330;11.498;2023-04-15T06:19:32;22735.31;;;-147.39;84.15
3524;BME280;1776;53.330;11.498;2023-04-15T06:21:58;22708.91;;;-147.39;84.31
3524;BME280;1776;53.330;11.498;2023-04-15T06:24:23;22694.66;;;-147.39;84.09
3524;BME280;1776;53.330;11.498;2023-04-15T06:26:49;22729.22;;;-147.39;83.83
3524;BME280;1776;53.330;11.498;2023-04-15T06:29:14;22723.13;;;-147.39;84.09
3524;BME280;1776;53.330;11.498;2023-04-15T06:31:40;22737.34;;;-147.39;83.87
3524;BME280;1776;53.330;11.498;2023-04-15T06:34:05;22731.25;;;-147.39;83.74
3524;BME280;1776;53.330;11.498;2023-04-15T06:36:31;22700.78;;;-147.39;83.91
3524;BME280;1776;53.330;11.498;2023-04-15T06:38:56;22662.16;;;-147.39;84.03
3524;BME280;1776;53.330;11.498;2023-04-15T06:41:22;22698.75;;;-147.39;83.98
3524;BME280;1776;53.330;11.498;2023-04-15T06:43:47;22700.78;;;-147.39;84.18
3524;BME280;1776;53.330;11.498;2023-04-15T06:46:12;22698.75;;;-147.39;83.95
3524;BME280;1776;53.330;11.498;2023-04-15T06:48:37;22698.75;;;-147.39;84.10
3524;BME280;1776;53.330;11.498;2023-04-15T06:51:03;22678.41;;;-147.39;84.17
3524;BME280;1776;53.330;11.498;2023-04-15T06:53:28;22694.66;;;-147.39;83.60
3524;BME280;1776;53.330;11.498;2023-04-15T06:55:54;22686.53;;;-147.39;83.54
3524;BME280;1776;53.330;11.498;2023-04-15T06:58:19;22708.91;;;-147.39;83.62
3524;BME280;1776;53.330;11.498;2023-04-15T07:00:45;22710.94;;;-147.39;84.07
3524;BME280;1776;53.330;11.498;2023-04-15T07:03:11;22647.91;;;-147.39;84.03
3524;BME280;1776;53.330;11.498;2023-04-15T07:05:37;22658.09;;;-147.39;84.09
3524;BME280;1776;53.330;11.498;2023-04-15T07:08:03;22658.09;;;-147.39;84.04
3524;BME280;1776;53.330;11.498;2023-04-15T07:10:28;22656.06;;;-147.39;84.54
3524;BME280;1776;53.330;11.498;2023-04-15T07:12:54;22710.94;;;-147.39;84.10
3524;BME280;1776;53.330;11.498;2023-04-15T07:15:19;22639.78;;;-147.39;84.11
3524;BME280;1776;53.330;11.498;2023-04-15T07:17:44;22637.75;;;-147.39;84.29
3524;BME280;1776;53.330;11.498;2023-04-15T07:20:10;22611.34;;;-147.39;84.27
3524;BME280;1776;53.330;11.498;2023-04-15T07:22:36;22576.78;;;-147.39;84.39
3524;BME280;1776;53.330;11.498;2023-04-15T07:25:02;22576.78;;;-147.39;84.41
3524;BME280;1776;53.330;11.498;2023-04-15T07:27:27;22588.97;;;-147.39;84.36
3524;BME280;1776;53.330;11.498;2023-04-15T07:29:53;22615.41;;;-147.39;84.27
3524;BME280;1776;53.330;11.498;2023-04-15T07:32:18;22619.47;;;-147.39;84.16
3524;BME280;1776;53.330;11.498;2023-04-15T07:34:44;22593.03;;;-147.39;84.32
3524;BME280;1776;53.330;11.498;2023-04-15T07:37:09;22625.56;;;-147.39;84.33
3524;BME280;1776;53.330;11.498;2023-04-15T07:39:34;22621.50;;;-147.39;84.27
3524;BME280;1776;53.330;11.498;2023-04-15T07:42:00;22641.81;;;-147.39;84.18
3524;BME280;1776;53.330;11.498;2023-04-15T07:44:26;22647.91;;;-147.39;84.28
3524;BME280;1776;53.330;11.498;2023-04-15T07:46:51;22615.41;;;-147.39;84.11
3524;BME280;1776;53.330;11.498;2023-04-15T07:49:16;22580.84;;;-147.39;84.10
3524;BME280;1776;53.330;11.498;2023-04-15T07:51:43;22617.44;;;-147.39;84.47
3524;BME280;1776;53.330;11.498;2023-04-15T07:54:08;22613.38;;;-147.39;84.18
3524;BME280;1776;53.330;11.498;2023-04-15T07:56:34;22629.63;;;-147.39;84.10
3524;BME280;1776;53.330;11.498;2023-04-15T07:58:59;22613.38;;;-147.39;83.92
3524;BME280;1776;53.330;11.498;2023-04-15T08:01:26;22623.53;;;-147.39;84.03
3524;BME280;1776;53.330;11.498;2023-04-15T08:03:51;22670.28;;;-147.39;83.47
3524;BME280;1776;53.330;11.498;2023-04-15T08:06:17;22658.09;;;-147.39;83.18
3524;BME280;1776;53.330;11.498;2023-04-15T08:08:42;22656.06;;;-147.39;82.96
3524;BME280;1776;53.330;11.498;2023-04-15T08:11:08;22676.38;;;-147.39;83.04
3524;BME280;1776;53.330;11.498;2023-04-15T08:13:33;22686.53;;;-147.39;82.77
3524;BME280;1776;53.330;11.498;2023-04-15T08:16:19;22723.13;;;-147.39;82.33
3524;BME280;1776;53.330;11.498;2023-04-15T08:18:46;22749.56;;;-147.39;82.42
3524;BME280;1776;53.330;11.498;2023-04-15T08:21:11;22771.91;;;-147.39;81.98
3524;BME280;1776;53.330;11.498;2023-04-15T08:23:37;22745.47;;;-147.39;81.45
3524;BME280;1776;53.330;11.498;2023-04-15T08:26:03;22796.31;;;-147.39;81.60
3524;BME280;1776;53.330;11.498;2023-04-15T08:28:28;22806.47;;;-147.39;81.18
3524;BME280;1776;53.330;11.498;2023-04-15T08:30:54;22784.09;;;-147.39;80.83
3524;BME280;1776;53.330;11.498;2023-04-15T08:33:19;22784.09;;;-147.39;81.04
3524;BME280;1776;53.330;11.498;2023-04-15T08:35:45;22820.69;;;-147.39;81.20
3524;BME280;1776;53.330;11.498;2023-04-15T08:38:10;22843.06;;;-147.39;80.97
3524;BME280;1776;53.330;11.498;2023-04-15T08:40:43;22887.75;;;-147.39;80.68
3524;BME280;1776;53.330;11.498;2023-04-15T08:43:10;22838.97;;;-147.39;80.60
3524;BME280;1776;53.330;11.498;2023-04-15T08:45:38;22897.94;;;-147.39;80.50
3524;BME280;1776;53.330;11.498;2023-04-15T08:48:04;22934.53;;;-147.39;79.87
3524;BME280;1776;53.330;11.498;2023-04-15T08:50:31;22619.47;;;-147.39;80.04
3524;BME280;1776;53.330;11.498;2023-04-15T08:52:58;22952.81;;;-147.39;79.79
3524;BME280;1776;53.330;11.498;2023-04-15T08:55:26;22930.44;;;-147.39;79.49
3524;BME280;1776;53.330;11.498;2023-04-15T08:57:53;22932.47;;;-147.39;79.26
3524;BME280;1776;53.330;11.498;2023-04-15T09:00:18;22969.06;;;-147.39;79.02
3524;BME280;1776;53.330;11.498;2023-04-15T09:02:44;23007.69;;;-147.39;78.80
3524;BME280;1776;53.330;11.498;2023-04-15T09:05:09;23003.63;;;-147.39;78.72
3524;BME280;1776;53.330;11.498;2023-04-15T09:07:35;23034.13;;;-147.39;78.27
3524;BME280;1776;53.330;11.498;2023-04-15T09:10:02;23058.50;;;-147.39;78.07
3524;BME280;1776;53.330;11.498;2023-04-15T09:12:27;23080.88;;;-147.39;77.74
3524;BME280;1776;53.330;11.498;2023-04-15T09:14:53;23078.84;;;-147.39;77.71
3524;BME280;1776;53.330;11.498;2023-04-15T09:17:19;23127.63;;;-147.39;77.76
3524;BME280;1776;53.330;11.498;2023-04-15T09:19:45;23154.06;;;-147.39;78.03
3524;BME280;1776;53.330;11.498;2023-04-15T09:22:11;23060.53;;;-147.39;78.87
3524;BME280;1776;53.330;11.498;2023-04-15T09:24:38;23210.97;;;-147.39;76.35
3524;BME280;1776;53.330;11.498;2023-04-15T09:27:05;23395.97;;;-147.39;73.84
3524;BME280;1776;53.330;11.498;2023-04-15T09:29:30;23473.22;;;-147.39;72.46
3524;BME280;1776;53.330;11.498;2023-04-15T09:32:08;23493.53;;;-147.39;72.12
3524;BME280;1776;53.330;11.498;2023-04-15T09:34:36;23587.06;;;-147.39;71.71
3524;BME280;1776;53.330;11.498;2023-04-15T09:37:02;23576.88;;;-147.39;71.63
3524;BME280;1776;53.330;11.498;2023-04-15T09:39:44;23743.59;;;-147.39;69.89
3524;BME280;1776;53.330;11.498;2023-04-15T09:42:09;23621.63;;;-147.39;70.24
3524;BME280;1776;53.330;11.498;2023-04-15T09:44:36;23660.25;;;-147.39;70.10
3524;BME280;1776;53.330;11.498;2023-04-15T09:47:01;23737.50;;;-147.39;69.40
3524;BME280;1776;53.330;11.498;2023-04-15T09:49:27;23753.75;;;-147.39;69.48
3524;BME280;1776;53.330;11.498;2023-04-15T09:51:58;23794.44;;;-147.39;69.09
3524;BME280;1776;53.330;11.498;2023-04-15T09:54:24;23894.06;;;-147.39;67.79
3524;BME280;1776;53.330;11.498;2023-04-15T09:56:49;23916.41;;;-147.39;67.35
3524;BME280;1776;53.330;11.498;2023-04-15T09:59:14;23928.63;;;-147.39;67.46
3524;BME280;1776;53.330;11.498;2023-04-15T10:01:41;23871.69;;;-147.39;67.70
3524;BME280;1776;53.330;11.498;2023-04-15T10:04:07;23883.88;;;-147.39;68.55
3524;BME280;1776;53.330;11.498;2023-04-15T10:06:33;23859.50;;;-147.39;68.28
3524;BME280;1776;53.330;11.498;2023-04-15T10:08:59;23938.78;;;-147.39;68.19
3524;BME280;1776;53.330;11.498;2023-04-15T10:11:27;23953.00;;;-147.39;68.03
3524;BME280;1776;53.330;11.498;2023-04-15T10:13:55;23928.63;;;-147.39;68.26
3524;BME280;1776;53.330;11.498;2023-04-15T10:16:22;23934.72;;;-147.39;68.26
3524;BME280;1776;53.330;11.498;2023-04-15T10:18:54;23946.91;;;-147.39;68.17
3524;BME280;1776;53.330;11.498;2023-04-15T10:21:19;23977.41;;;-147.39;67.86
3524;BME280;1776;53.330;11.498;2023-04-15T10:23:47;24030.28;;;-147.39;66.64
3524;BME280;1776;53.330;11.498;2023-04-15T10:26:12;24024.19;;;-147.39;66.62
3524;BME280;1776;53.330;11.498;2023-04-15T10:28:44;24115.66;;;-147.39;66.48
3524;BME280;1776;53.330;11.498;2023-04-15T10:31:13;24024.19;;;-147.39;66.75
3524;BME280;1776;53.330;11.498;2023-04-15T10:33:40;24032.31;;;-147.39;66.18
3524;BME280;1776;53.330;11.498;2023-04-15T10:36:07;24046.53;;;-147.39;65.81
3524;BME280;1776;53.330;11.498;2023-04-15T10:38:43;24072.97;;;-147.39;65.87
3524;BME280;1776;53.330;11.498;2023-04-15T10:41:26;24064.84;;;-147.39;66.20
3524;BME280;1776;53.330;11.498;2023-04-15T10:46:33;24109.56;;;-147.39;65.19
3524;BME280;1776;53.330;11.498;2023-04-15T10:49:07;24166.50;;;-147.39;64.82
3524;BME280;1776;53.330;11.498;2023-04-15T10:51:37;24146.16;;;-147.39;65.59
3524;BME280;1776;53.330;11.498;2023-04-15T10:54:08;24125.84;;;-147.39;65.55
3524;BME280;1776;53.330;11.498;2023-04-15T10:56:37;24156.34;;;-147.39;66.17
3524;BME280;1776;53.330;11.498;2023-04-15T10:59:04;24115.66;;;-147.39;66.23
3524;BME280;1776;53.330;11.498;2023-04-15T11:01:52;24154.31;;;-147.39;65.98
3524;BME280;1776;53.330;11.498;2023-04-15T11:07:47;24119.75;;;-147.39;65.53
3524;BME280;1776;53.330;11.498;2023-04-15T11:12:38;24162.44;;;-147.39;64.89
3524;BME280;1776;53.330;11.498;2023-04-15T11:15:29;24211.25;;;-147.39;64.13
3524;BME280;1776;53.330;11.498;2023-04-15T11:18:16;24176.66;;;-147.39;64.75
3524;BME280;1776;53.330;11.498;2023-04-15T11:20:56;24162.44;;;-147.39;63.96
3524;BME280;1776;53.330;11.498;2023-04-15T11:26:01;24186.84;;;-147.39;63.90
3524;BME280;1776;53.330;11.498;2023-04-15T11:28:28;24233.59;;;-147.39;63.56
3524;BME280;1776;53.330;11.498;2023-04-15T11:30:54;24207.16;;;-147.39;64.00
3524;BME280;1776;53.330;11.498;2023-04-15T11:33:21;24207.16;;;-147.39;63.75
3524;BME280;1776;53.330;11.498;2023-04-15T11:35:47;24186.84;;;-147.39;63.33
3524;BME280;1776;53.330;11.498;2023-04-15T11:38:14;24243.78;;;-147.39;63.41
3524;BME280;1776;53.330;11.498;2023-04-15T11:40:40;24229.53;;;-147.39;63.37
3524;BME280;1776;53.330;11.498;2023-04-15T11:43:10;24213.28;;;-147.39;63.61
3524;BME280;1776;53.330;11.498;2023-04-15T11:45:38;24223.44;;;-147.39;63.99
3524;BME280;1776;53.330;11.498;2023-04-15T11:48:12;24201.06;;;-147.39;63.98
3524;BME280;1776;53.330;11.498;2023-04-15T11:50:38;24229.53;;;-147.39;63.22
3524;BME280;1776;53.330;11.498;2023-04-15T11:53:08;24227.50;;;-147.39;63.50
3524;BME280;1776;53.330;11.498;2023-04-15T11:55:48;24231.56;;;-147.39;63.54
3524;BME280;1776;53.330;11.498;2023-04-15T11:58:18;24264.09;;;-147.39;63.42
3524;BME280;1776;53.330;11.498;2023-04-15T12:00:46;24227.50;;;-147.39;63.13
3524;BME280;1776;53.330;11.498;2023-04-15T12:03:17;24247.84;;;-147.39;63.48
3524;BME280;1776;53.330;11.498;2023-04-15T12:16:41;24308.84;;;-147.39;62.72
3524;BME280;1776;53.330;11.498;2023-04-15T12:19:14;24292.56;;;-147.39;62.71
3524;BME280;1776;53.330;11.498;2023-04-15T12:21:43;24294.59;;;-147.39;62.72
3524;BME280;1776;53.330;11.498;2023-04-15T12:24:10;24249.88;;;-147.39;63.40
3524;BME280;1776;53.330;11.498;2023-04-15T12:26:48;24258.00;;;-147.39;63.26
3524;BME280;1776;53.330;11.498;2023-04-15T12:29:15;24349.50;;;-147.39;63.42
3524;BME280;1776;53.330;11.498;2023-04-15T12:31:51;24286.47;;;-147.39;63.64
3524;BME280;1776;53.330;11.498;2023-04-15T12:34:28;24247.84;;;-147.39;63.64
3524;BME280;1776;53.330;11.498;2023-04-15T12:36:54;24225.47;;;-147.39;64.01
3524;BME280;1776;53.330;11.498;2023-04-15T12:39:23;24229.53;;;-147.39;63.85
3524;BME280;1776;53.330;11.498;2023-04-15T12:41:50;24217.34;;;-147.39;64.05
3524;BME280;1776;53.330;11.498;2023-04-15T12:44:16;24203.09;;;-147.39;64.15
3524;BME280;1776;53.330;11.498;2023-04-15T12:46:42;24266.13;;;-147.39;64.00
3524;BME280;1776;53.330;11.498;2023-04-15T12:49:07;24215.31;;;-147.39;64.46
3524;BME280;1776;53.330;11.498;2023-04-15T12:51:33;24225.47;;;-147.39;65.24
3524;BME280;1776;53.330;11.498;2023-04-15T12:53:59;24221.41;;;-147.39;64.71
3524;BME280;1776;53.330;11.498;2023-04-15T12:56:24;24201.06;;;-147.39;64.56
3524;BME280;1776;53.330;11.498;2023-04-15T12:58:49;24199.03;;;-147.39;65.63
3524;BME280;1776;53.330;11.498;2023-04-15T13:01:15;24231.56;;;-147.39;64.22
3524;BME280;1776;53.330;11.498;2023-04-15T13:03:40;24203.09;;;-147.39;64.09
3524;BME280;1776;53.330;11.498;2023-04-15T13:06:06;24215.31;;;-147.39;63.71
3524;BME280;1776;53.330;11.498;2023-04-15T13:08:32;24209.19;;;-147.39;63.24